sensor_id;sensor_type;location;lat;lon;timestamp;P1;durP1;ratioP1;P2;durP2;ratioP2
50853;SDS011;44154;45.506;-122.806;2023-02-07T00:01:08;3.72;;;0.80;;
50853;SDS011;44154;45.506;-122.806;2023-02-07T00:03:36;2.45;;;1.10;;
50853;SDS011;44154;45.506;-122.806;2023-02-07T00:08:33;3.90;;;1.30;;
50853;SDS011;44154;45.506;-122.806;2023-02-07T00:11:03;3.67;;;1.20;;
50853;SDS011;44154;45.506;-122.806;2023-02-07T00:13:33;2.33;;;0.90;;
50853;SDS011;44154;45.506;-122.806;2023-02-07T00:16:00;3.28;;;1.70;;
50853;SDS011;44154;45.506;-122.806;2023-02-07T00:18:27;3.67;;;2.03;;
50853;SDS011;44154;45.506;-122.806;2023-02-07T00:20:57;4.70;;;2.10;;
50853;SDS011;44154;45.506;-122.806;2023-02-07T00:23:24;3.55;;;1.55;;
50853;SDS011;44154;45.506;-122.806;2023-02-07T00:25:50;3.10;;;1.98;;
50853;SDS011;44154;45.506;-122.806;2023-02-07T00:28:16;2.08;;;1.48;;
50853;SDS011;44154;45.506;-122.806;2023-02-07T00:30:42;3.33;;;1.80;;
50853;SDS011;44154;45.506;-122.806;2023-02-07T00:33:08;2.20;;;1.55;;
50853;SDS011;44154;45.506;-122.806;2023-02-07T00:35:34;3.38;;;1.95;;
50853;SDS011;44154;45.506;-122.806;2023-02-07T00:38:00;3.17;;;2.20;;
50853;SDS011;44154;45.506;-122.806;2023-02-07T00:40:26;2.80;;;1.60;;
50853;SDS011;44154;45.506;-122.806;2023-02-07T00:42:53;2.50;;;1.50;;
50853;SDS011;44154;45.506;-122.806;2023-02-07T00:45:19;2.20;;;1.40;;
50853;SDS011;44154;45.506;-122.806;2023-02-07T00:47:45;3.22;;;2.45;;
50853;SDS011;44154;45.506;-122.806;2023-02-07T00:50:11;3.15;;;2.55;;
50853;SDS011;44154;45.506;-122.806;2023-02-07T00:52:37;3.63;;;2.60;;
50853;SDS011;44154;45.506;-122.806;2023-02-07T00:55:03;4.20;;;2.60;;
50853;SDS011;44154;45.506;-122.806;2023-02-07T00:57:29;2.90;;;2.28;;
50853;SDS011;44154;45.506;-122.806;2023-02-07T00:59:56;2.70;;;2.22;;
50853;SDS011;44154;45.506;-122.806;2023-02-07T01:02:22;3.85;;;2.10;;
50853;SDS011;44154;45.506;-122.806;2023-02-07T01:04:48;2.88;;;1.90;;
50853;SDS011;44154;45.506;-122.806;2023-02-07T01:07:14;2.92;;;2.33;;
50853;SDS011;44154;45.506;-122.806;2023-02-07T01:09:40;2.88;;;2.20;;
50853;SDS011;44154;45.506;-122.806;2023-02-07T01:12:06;2.20;;;1.60;;
50853;SDS011;44154;45.506;-122.806;2023-02-07T01:14:32;3.08;;;2.33;;
50853;SDS011;44154;45.506;-122.806;2023-02-07T01:16:59;3.35;;;2.40;;
50853;SDS011;44154;45.506;-122.806;2023-02-07T01:19:25;4.63;;;3.20;;
50853;SDS011;44154;45.506;-122.806;2023-02-07T01:21:51;3.67;;;3.17;;
50853;SDS011;44154;45.506;-122.806;2023-02-07T01:24:17;3.20;;;2.72;;
50853;SDS011;44154;45.506;-122.806;2023-02-07T01:26:43;3.42;;;2.67;;
50853;SDS011;44154;45.506;-122.806;2023-02-07T01:29:09;3.28;;;2.80;;
50853;SDS011;44154;45.506;-122.806;2023-02-07T01:31:40;3.40;;;2.60;;
50853;SDS011;44154;45.506;-122.806;2023-02-07T01:34:08;3.10;;;2.60;;
50853;SDS011;44154;45.506;-122.806;2023-02-07T01:36:37;4.43;;;2.78;;
50853;SDS011;44154;45.506;-122.806;2023-02-07T01:39:03;3.30;;;2.83;;
50853;SDS011;44154;45.506;-122.806;2023-02-07T01:41:29;2.65;;;1.85;;
50853;SDS011;44154;45.506;-122.806;2023-02-07T01:44:00;2.50;;;2.13;;
50853;SDS011;44154;45.506;-122.806;2023-02-07T01:46:31;2.55;;;2.17;;
50853;SDS011;44154;45.506;-122.806;2023-02-07T01:49:04;3.85;;;3.40;;
50853;SDS011;44154;45.506;-122.806;2023-02-07T01:51:34;4.43;;;3.70;;
50853;SDS011;44154;45.506;-122.806;2023-02-07T01:54:03;3.70;;;3.30;;
50853;SDS011;44154;45.506;-122.806;2023-02-07T01:56:32;3.10;;;2.70;;
50853;SDS011;44154;45.506;-122.806;2023-02-07T01:59:03;3.72;;;3.00;;
50853;SDS011;44154;45.506;-122.806;2023-02-07T02:01:31;6.43;;;2.80;;
50853;SDS011;44154;45.506;-122.806;2023-02-07T02:03:57;9.02;;;5.80;;
50853;SDS011;44154;45.506;-122.806;2023-02-07T02:06:24;4.90;;;3.85;;
50853;SDS011;44154;45.506;-122.806;2023-02-07T02:08:54;4.43;;;2.65;;
50853;SDS011;44154;45.506;-122.806;2023-02-07T02:14:26;5.25;;;3.58;;
50853;SDS011;44154;45.506;-122.806;2023-02-07T02:40:55;11.00;;;7.73;;
50853;SDS011;44154;45.506;-122.806;2023-02-07T02:43:39;8.60;;;7.70;;
50853;SDS011;44154;45.506;-122.806;2023-02-07T02:46:32;11.07;;;8.88;;
50853;SDS011;44154;45.506;-122.806;2023-02-07T02:49:00;12.00;;;8.63;;
50853;SDS011;44154;45.506;-122.806;2023-02-07T02:51:28;7.20;;;4.30;;
50853;SDS011;44154;45.506;-122.806;2023-02-07T02:53:55;6.20;;;4.68;;
50853;SDS011;44154;45.506;-122.806;2023-02-07T02:56:42;8.25;;;5.43;;
50853;SDS011;44154;45.506;-122.806;2023-02-07T03:21:27;6.75;;;5.53;;
50853;SDS011;44154;45.506;-122.806;2023-02-07T03:24:00;8.02;;;6.00;;
50853;SDS011;44154;45.506;-122.806;2023-02-07T03:26:31;9.35;;;6.60;;
50853;SDS011;44154;45.506;-122.806;2023-02-07T03:28:58;7.70;;;6.38;;
50853;SDS011;44154;45.506;-122.806;2023-02-07T03:31:26;10.80;;;5.45;;
50853;SDS011;44154;45.506;-122.806;2023-02-07T03:33:57;6.30;;;4.22;;
50853;SDS011;44154;45.506;-122.806;2023-02-07T03:36:32;7.68;;;3.90;;
50853;SDS011;44154;45.506;-122.806;2023-02-07T03:39:04;8.50;;;5.18;;
50853;SDS011;44154;45.506;-122.806;2023-02-07T03:41:33;5.65;;;4.20;;
50853;SDS011;44154;45.506;-122.806;2023-02-07T03:44:16;6.75;;;4.70;;
50853;SDS011;44154;45.506;-122.806;2023-02-07T03:46:48;9.40;;;5.57;;
50853;SDS011;44154;45.506;-122.806;2023-02-07T03:49:15;8.68;;;5.68;;
50853;SDS011;44154;45.506;-122.806;2023-02-07T03:51:44;7.93;;;5.43;;
50853;SDS011;44154;45.506;-122.806;2023-02-07T03:54:11;10.00;;;6.00;;
50853;SDS011;44154;45.506;-122.806;2023-02-07T03:56:37;11.25;;;6.38;;
50853;SDS011;44154;45.506;-122.806;2023-02-07T03:59:04;12.05;;;5.88;;
50853;SDS011;44154;45.506;-122.806;2023-02-07T04:01:31;8.15;;;5.00;;
50853;SDS011;44154;45.506;-122.806;2023-02-07T04:03:57;6.15;;;4.18;;
50853;SDS011;44154;45.506;-122.806;2023-02-07T04:06:23;5.85;;;4.03;;
50853;SDS011;44154;45.506;-122.806;2023-02-07T04:08:49;4.95;;;3.65;;
50853;SDS011;44154;45.506;-122.806;2023-02-07T04:11:15;8.73;;;5.07;;
50853;SDS011;44154;45.506;-122.806;2023-02-07T04:13:41;9.38;;;4.88;;
50853;SDS011;44154;45.506;-122.806;2023-02-07T04:16:08;7.72;;;5.35;;
50853;SDS011;44154;45.506;-122.806;2023-02-07T04:18:34;6.45;;;4.47;;
50853;SDS011;44154;45.506;-122.806;2023-02-07T04:21:04;7.93;;;4.85;;
50853;SDS011;44154;45.506;-122.806;2023-02-07T04:23:32;5.63;;;4.30;;
50853;SDS011;44154;45.506;-122.806;2023-02-07T04:25:59;5.43;;;4.43;;
50853;SDS011;44154;45.506;-122.806;2023-02-07T04:28:25;6.55;;;4.32;;
50853;SDS011;44154;45.506;-122.806;2023-02-07T04:30:52;7.65;;;4.88;;
50853;SDS011;44154;45.506;-122.806;2023-02-07T04:33:19;9.55;;;4.88;;
50853;SDS011;44154;45.506;-122.806;2023-02-07T04:35:52;11.55;;;6.78;;
50853;SDS011;44154;45.506;-122.806;2023-02-07T04:38:21;10.27;;;6.40;;
50853;SDS011;44154;45.506;-122.806;2023-02-07T04:40:48;5.97;;;4.30;;
50853;SDS011;44154;45.506;-122.806;2023-02-07T04:43:14;7.35;;;5.00;;
50853;SDS011;44154;45.506;-122.806;2023-02-07T04:45:40;8.73;;;5.15;;
50853;SDS011;44154;45.506;-122.806;2023-02-07T04:48:06;5.93;;;4.50;;
50853;SDS011;44154;45.506;-122.806;2023-02-07T04:50:32;8.73;;;4.97;;
50853;SDS011;44154;45.506;-122.806;2023-02-07T04:52:59;6.20;;;4.53;;
50853;SDS011;44154;45.506;-122.806;2023-02-07T04:55:25;8.57;;;4.50;;
50853;SDS011;44154;45.506;-122.806;2023-02-07T04:57:51;7.80;;;4.45;;
50853;SDS011;44154;45.506;-122.806;2023-02-07T05:00:17;8.38;;;6.18;;
50853;SDS011;44154;45.506;-122.806;2023-02-07T05:02:43;10.43;;;6.72;;
50853;SDS011;44154;45.506;-122.806;2023-02-07T05:05:10;10.13;;;9.10;;
50853;SDS011;44154;45.506;-122.806;2023-02-07T05:07:36;10.27;;;8.80;;
50853;SDS011;44154;45.506;-122.806;2023-02-07T05:10:02;7.93;;;7.07;;
50853;SDS011;44154;45.506;-122.806;2023-02-07T05:12:29;7.82;;;6.50;;
50853;SDS011;44154;45.506;-122.806;2023-02-07T05:14:55;8.73;;;6.15;;
50853;SDS011;44154;45.506;-122.806;2023-02-07T05:17:21;6.78;;;6.07;;
50853;SDS011;44154;45.506;-122.806;2023-02-07T05:19:47;8.27;;;5.93;;
50853;SDS011;44154;45.506;-122.806;2023-02-07T05:22:13;7.40;;;6.07;;
50853;SDS011;44154;45.506;-122.806;2023-02-07T05:24:40;7.35;;;5.93;;
50853;SDS011;44154;45.506;-122.806;2023-02-07T05:27:06;7.05;;;6.35;;
50853;SDS011;44154;45.506;-122.806;2023-02-07T05:29:32;6.90;;;5.80;;
50853;SDS011;44154;45.506;-122.806;2023-02-07T05:31:58;6.85;;;5.97;;
50853;SDS011;44154;45.506;-122.806;2023-02-07T05:34:42;11.02;;;9.93;;
50853;SDS011;44154;45.506;-122.806;2023-02-07T05:37:09;13.05;;;11.63;;
50853;SDS011;44154;45.506;-122.806;2023-02-07T05:39:35;12.50;;;11.30;;
50853;SDS011;44154;45.506;-122.806;2023-02-07T05:42:01;8.63;;;7.72;;
50853;SDS011;44154;45.506;-122.806;2023-02-07T05:44:27;9.30;;;7.63;;
50853;SDS011;44154;45.506;-122.806;2023-02-07T05:46:53;8.38;;;7.30;;
50853;SDS011;44154;45.506;-122.806;2023-02-07T05:49:19;8.15;;;7.35;;
50853;SDS011;44154;45.506;-122.806;2023-02-07T05:51:45;8.52;;;7.03;;
50853;SDS011;44154;45.506;-122.806;2023-02-07T05:54:11;8.30;;;7.40;;
50853;SDS011;44154;45.506;-122.806;2023-02-07T05:56:37;11.90;;;7.85;;
50853;SDS011;44154;45.506;-122.806;2023-02-07T05:59:04;8.75;;;7.70;;
50853;SDS011;44154;45.506;-122.806;2023-02-07T06:01:30;9.43;;;7.68;;
50853;SDS011;44154;45.506;-122.806;2023-02-07T06:03:56;8.55;;;7.60;;
50853;SDS011;44154;45.506;-122.806;2023-02-07T06:06:22;8.52;;;7.70;;
50853;SDS011;44154;45.506;-122.806;2023-02-07T06:08:48;18.02;;;16.33;;
50853;SDS011;44154;45.506;-122.806;2023-02-07T06:11:14;18.05;;;16.25;;
50853;SDS011;44154;45.506;-122.806;2023-02-07T06:13:40;11.55;;;10.45;;
50853;SDS011;44154;45.506;-122.806;2023-02-07T06:16:07;11.10;;;10.00;;
50853;SDS011;44154;45.506;-122.806;2023-02-07T06:18:35;10.32;;;9.15;;
50853;SDS011;44154;45.506;-122.806;2023-02-07T06:21:02;9.70;;;8.77;;
50853;SDS011;44154;45.506;-122.806;2023-02-07T06:23:28;10.18;;;9.15;;
50853;SDS011;44154;45.506;-122.806;2023-02-07T06:25:55;10.98;;;9.88;;
50853;SDS011;44154;45.506;-122.806;2023-02-07T06:28:21;11.55;;;10.35;;
50853;SDS011;44154;45.506;-122.806;2023-02-07T06:30:49;11.35;;;9.88;;
50853;SDS011;44154;45.506;-122.806;2023-02-07T06:33:16;10.35;;;8.95;;
50853;SDS011;44154;45.506;-122.806;2023-02-07T06:35:42;10.35;;;9.25;;
50853;SDS011;44154;45.506;-122.806;2023-02-07T06:38:12;23.48;;;21.25;;
50853;SDS011;44154;45.506;-122.806;2023-02-07T06:40:42;20.88;;;18.83;;
50853;SDS011;44154;45.506;-122.806;2023-02-07T06:43:09;18.83;;;15.13;;
50853;SDS011;44154;45.506;-122.806;2023-02-07T06:45:36;14.43;;;12.98;;
50853;SDS011;44154;45.506;-122.806;2023-02-07T06:48:02;13.82;;;10.93;;
50853;SDS011;44154;45.506;-122.806;2023-02-07T06:50:29;11.52;;;9.73;;
50853;SDS011;44154;45.506;-122.806;2023-02-07T06:52:55;11.05;;;10.05;;
50853;SDS011;44154;45.506;-122.806;2023-02-07T06:55:27;10.60;;;9.50;;
50853;SDS011;44154;45.506;-122.806;2023-02-07T06:57:57;9.63;;;8.63;;
50853;SDS011;44154;45.506;-122.806;2023-02-07T07:00:23;9.65;;;8.65;;
50853;SDS011;44154;45.506;-122.806;2023-02-07T07:02:49;9.95;;;8.95;;
50853;SDS011;44154;45.506;-122.806;2023-02-07T07:05:17;10.35;;;9.18;;
50853;SDS011;44154;45.506;-122.806;2023-02-07T07:07:43;10.43;;;9.32;;
50853;SDS011;44154;45.506;-122.806;2023-02-07T07:10:09;10.68;;;9.48;;
50853;SDS011;44154;45.506;-122.806;2023-02-07T07:12:37;9.93;;;8.93;;
50853;SDS011;44154;45.506;-122.806;2023-02-07T07:15:03;9.82;;;8.88;;
50853;SDS011;44154;45.506;-122.806;2023-02-07T07:17:30;9.90;;;8.82;;
50853;SDS011;44154;45.506;-122.806;2023-02-07T07:19:56;13.30;;;11.50;;
50853;SDS011;44154;45.506;-122.806;2023-02-07T07:22:24;11.30;;;9.88;;
50853;SDS011;44154;45.506;-122.806;2023-02-07T07:24:50;11.18;;;10.07;;
50853;SDS011;44154;45.506;-122.806;2023-02-07T07:27:17;11.13;;;10.00;;
50853;SDS011;44154;45.506;-122.806;2023-02-07T07:29:43;10.32;;;9.30;;
50853;SDS011;44154;45.506;-122.806;2023-02-07T07:32:10;9.82;;;8.90;;
50853;SDS011;44154;45.506;-122.806;2023-02-07T07:34:36;10.00;;;9.00;;
50853;SDS011;44154;45.506;-122.806;2023-02-07T07:37:03;11.02;;;9.93;;
50853;SDS011;44154;45.506;-122.806;2023-02-07T07:39:29;10.82;;;9.75;;
50853;SDS011;44154;45.506;-122.806;2023-02-07T07:41:56;10.95;;;9.32;;
50853;SDS011;44154;45.506;-122.806;2023-02-07T07:44:22;10.95;;;9.85;;
50853;SDS011;44154;45.506;-122.806;2023-02-07T07:46:48;10.52;;;9.48;;
50853;SDS011;44154;45.506;-122.806;2023-02-07T07:49:14;11.15;;;9.77;;
50853;SDS011;44154;45.506;-122.806;2023-02-07T07:51:41;10.10;;;9.10;;
50853;SDS011;44154;45.506;-122.806;2023-02-07T07:54:07;10.07;;;9.07;;
50853;SDS011;44154;45.506;-122.806;2023-02-07T07:56:33;9.48;;;8.48;;
50853;SDS011;44154;45.506;-122.806;2023-02-07T07:59:00;10.52;;;9.48;;
50853;SDS011;44154;45.506;-122.806;2023-02-07T08:01:26;10.05;;;8.88;;
50853;SDS011;44154;45.506;-122.806;2023-02-07T08:03:53;10.30;;;9.20;;
50853;SDS011;44154;45.506;-122.806;2023-02-07T08:06:19;10.45;;;9.27;;
50853;SDS011;44154;45.506;-122.806;2023-02-07T08:08:45;10.43;;;8.80;;
50853;SDS011;44154;45.506;-122.806;2023-02-07T08:11:11;9.63;;;8.63;;
50853;SDS011;44154;45.506;-122.806;2023-02-07T08:13:37;9.55;;;8.55;;
50853;SDS011;44154;45.506;-122.806;2023-02-07T08:16:04;9.82;;;8.82;;
50853;SDS011;44154;45.506;-122.806;2023-02-07T08:18:35;10.10;;;9.02;;
50853;SDS011;44154;45.506;-122.806;2023-02-07T08:21:01;10.40;;;9.40;;
50853;SDS011;44154;45.506;-122.806;2023-02-07T08:23:28;10.43;;;9.43;;
50853;SDS011;44154;45.506;-122.806;2023-02-07T08:25:54;11.98;;;10.88;;
50853;SDS011;44154;45.506;-122.806;2023-02-07T08:28:20;8.95;;;8.05;;
50853;SDS011;44154;45.506;-122.806;2023-02-07T08:30:46;10.05;;;9.15;;
50853;SDS011;44154;45.506;-122.806;2023-02-07T08:33:13;10.35;;;9.32;;
50853;SDS011;44154;45.506;-122.806;2023-02-07T08:35:40;10.02;;;9.02;;
50853;SDS011;44154;45.506;-122.806;2023-02-07T08:38:07;9.80;;;8.80;;
50853;SDS011;44154;45.506;-122.806;2023-02-07T08:40:33;9.52;;;8.63;;
50853;SDS011;44154;45.506;-122.806;2023-02-07T08:43:00;9.65;;;8.65;;
50853;SDS011;44154;45.506;-122.806;2023-02-07T08:45:29;11.25;;;8.52;;
50853;SDS011;44154;45.506;-122.806;2023-02-07T08:47:55;10.02;;;8.93;;
50853;SDS011;44154;45.506;-122.806;2023-02-07T08:50:21;10.25;;;8.75;;
50853;SDS011;44154;45.506;-122.806;2023-02-07T08:52:47;11.90;;;9.60;;
50853;SDS011;44154;45.506;-122.806;2023-02-07T08:55:13;9.23;;;8.32;;
50853;SDS011;44154;45.506;-122.806;2023-02-07T08:57:40;8.80;;;7.88;;
50853;SDS011;44154;45.506;-122.806;2023-02-07T09:00:06;10.48;;;9.38;;
50853;SDS011;44154;45.506;-122.806;2023-02-07T09:02:33;9.93;;;8.93;;
50853;SDS011;44154;45.506;-122.806;2023-02-07T09:04:59;10.50;;;9.40;;
50853;SDS011;44154;45.506;-122.806;2023-02-07T09:07:25;10.70;;;9.43;;
50853;SDS011;44154;45.506;-122.806;2023-02-07T09:09:52;10.63;;;9.32;;
50853;SDS011;44154;45.506;-122.806;2023-02-07T09:12:18;10.00;;;9.00;;
50853;SDS011;44154;45.506;-122.806;2023-02-07T09:14:44;10.27;;;9.27;;
50853;SDS011;44154;45.506;-122.806;2023-02-07T09:17:10;9.75;;;8.82;;
50853;SDS011;44154;45.506;-122.806;2023-02-07T09:19:36;9.18;;;8.27;;
50853;SDS011;44154;45.506;-122.806;2023-02-07T09:22:03;10.30;;;9.30;;
50853;SDS011;44154;45.506;-122.806;2023-02-07T09:24:29;9.55;;;8.65;;
50853;SDS011;44154;45.506;-122.806;2023-02-07T09:26:56;9.60;;;8.70;;
50853;SDS011;44154;45.506;-122.806;2023-02-07T09:29:23;10.48;;;9.48;;
50853;SDS011;44154;45.506;-122.806;2023-02-07T09:31:49;10.10;;;9.13;;
50853;SDS011;44154;45.506;-122.806;2023-02-07T09:34:15;10.68;;;9.68;;
50853;SDS011;44154;45.506;-122.806;2023-02-07T09:36:41;10.63;;;9.63;;
50853;SDS011;44154;45.506;-122.806;2023-02-07T09:39:08;10.55;;;9.45;;
50853;SDS011;44154;45.506;-122.806;2023-02-07T09:41:40;10.13;;;9.20;;
50853;SDS011;44154;45.506;-122.806;2023-02-07T09:44:17;10.63;;;9.63;;
50853;SDS011;44154;45.506;-122.806;2023-02-07T09:47:02;10.43;;;9.52;;
50853;SDS011;44154;45.506;-122.806;2023-02-07T09:52:05;11.27;;;10.18;;
50853;SDS011;44154;45.506;-122.806;2023-02-07T09:54:38;9.68;;;8.77;;
50853;SDS011;44154;45.506;-122.806;2023-02-07T09:57:08;10.15;;;9.18;;
50853;SDS011;44154;45.506;-122.806;2023-02-07T09:59:45;10.18;;;9.18;;
50853;SDS011;44154;45.506;-122.806;2023-02-07T10:02:35;10.25;;;9.27;;
50853;SDS011;44154;45.506;-122.806;2023-02-07T10:05:04;9.98;;;8.98;;
50853;SDS011;44154;45.506;-122.806;2023-02-07T10:07:59;9.93;;;8.93;;
50853;SDS011;44154;45.506;-122.806;2023-02-07T10:10:30;10.63;;;9.52;;
50853;SDS011;44154;45.506;-122.806;2023-02-07T10:13:26;19.17;;;17.48;;
50853;SDS011;44154;45.506;-122.806;2023-02-07T10:30:34;28.73;;;26.33;;
50853;SDS011;44154;45.506;-122.806;2023-02-07T10:33:09;28.88;;;26.38;;
50853;SDS011;44154;45.506;-122.806;2023-02-07T10:35:39;26.95;;;24.65;;
50853;SDS011;44154;45.506;-122.806;2023-02-07T10:41:32;27.92;;;25.52;;
50853;SDS011;44154;45.506;-122.806;2023-02-07T10:44:10;27.63;;;25.30;;
50853;SDS011;44154;45.506;-122.806;2023-02-07T10:46:59;30.05;;;27.55;;
50853;SDS011;44154;45.506;-122.806;2023-02-07T10:49:27;25.67;;;23.48;;
50853;SDS011;44154;45.506;-122.806;2023-02-07T10:52:42;19.15;;;17.55;;
50853;SDS011;44154;45.506;-122.806;2023-02-07T10:54:53;21.55;;;19.75;;
50853;SDS011;44154;45.506;-122.806;2023-02-07T10:57:24;23.33;;;21.42;;
50853;SDS011;44154;45.506;-122.806;2023-02-07T10:59:59;22.75;;;20.70;;
50853;SDS011;44154;45.506;-122.806;2023-02-07T11:02:35;22.58;;;20.67;;
50853;SDS011;44154;45.506;-122.806;2023-02-07T11:07:42;23.27;;;21.30;;
50853;SDS011;44154;45.506;-122.806;2023-02-07T11:10:26;23.67;;;21.77;;
50853;SDS011;44154;45.506;-122.806;2023-02-07T11:13:04;22.50;;;20.60;;
50853;SDS011;44154;45.506;-122.806;2023-02-07T11:21:02;21.98;;;20.08;;
50853;SDS011;44154;45.506;-122.806;2023-02-07T11:23:30;17.83;;;16.33;;
50853;SDS011;44154;45.506;-122.806;2023-02-07T11:25:56;19.42;;;17.73;;
50853;SDS011;44154;45.506;-122.806;2023-02-07T11:28:26;20.65;;;18.95;;
50853;SDS011;44154;45.506;-122.806;2023-02-07T11:30:58;20.52;;;18.83;;
50853;SDS011;44154;45.506;-122.806;2023-02-07T11:33:28;20.15;;;18.45;;
50853;SDS011;44154;45.506;-122.806;2023-02-07T11:38:49;22.00;;;20.20;;
50853;SDS011;44154;45.506;-122.806;2023-02-07T11:41:19;20.80;;;19.10;;
50853;SDS011;44154;45.506;-122.806;2023-02-07T11:46:29;21.83;;;19.95;;
50853;SDS011;44154;45.506;-122.806;2023-02-07T11:49:01;20.52;;;18.83;;
50853;SDS011;44154;45.506;-122.806;2023-02-07T11:51:30;16.08;;;14.75;;
50853;SDS011;44154;45.506;-122.806;2023-02-07T11:54:01;14.50;;;13.30;;
50853;SDS011;44154;45.506;-122.806;2023-02-07T11:56:31;16.58;;;15.23;;
50853;SDS011;44154;45.506;-122.806;2023-02-07T11:59:05;17.63;;;16.23;;
50853;SDS011;44154;45.506;-122.806;2023-02-07T12:01:39;17.50;;;16.02;;
50853;SDS011;44154;45.506;-122.806;2023-02-07T12:04:14;18.40;;;16.90;;
50853;SDS011;44154;45.506;-122.806;2023-02-07T12:06:47;17.60;;;16.20;;
50853;SDS011;44154;45.506;-122.806;2023-02-07T12:15:14;19.00;;;17.40;;
50853;SDS011;44154;45.506;-122.806;2023-02-07T12:20:45;17.30;;;15.80;;
50853;SDS011;44154;45.506;-122.806;2023-02-07T12:26:00;16.10;;;14.77;;
50853;SDS011;44154;45.506;-122.806;2023-02-07T12:28:33;15.82;;;14.52;;
50853;SDS011;44154;45.506;-122.806;2023-02-07T12:31:15;16.05;;;14.75;;
50853;SDS011;44154;45.506;-122.806;2023-02-07T12:34:00;16.73;;;15.32;;
50853;SDS011;44154;45.506;-122.806;2023-02-07T12:36:35;16.27;;;14.90;;
50853;SDS011;44154;45.506;-122.806;2023-02-07T12:39:19;17.00;;;15.57;;
50853;SDS011;44154;45.506;-122.806;2023-02-07T12:44:40;17.25;;;15.75;;
50853;SDS011;44154;45.506;-122.806;2023-02-07T12:49:56;15.38;;;14.07;;
50853;SDS011;44154;45.506;-122.806;2023-02-07T12:52:38;13.70;;;12.50;;
50853;SDS011;44154;45.506;-122.806;2023-02-07T12:58:24;14.80;;;13.60;;
50853;SDS011;44154;45.506;-122.806;2023-02-07T13:06:31;14.88;;;13.57;;
50853;SDS011;44154;45.506;-122.806;2023-02-07T13:23:02;11.95;;;10.95;;
50853;SDS011;44154;45.506;-122.806;2023-02-07T13:25:37;13.77;;;12.50;;
50853;SDS011;44154;45.506;-122.806;2023-02-07T13:28:53;13.48;;;12.18;;
50853;SDS011;44154;45.506;-122.806;2023-02-07T13:31:12;13.65;;;12.55;;
50853;SDS011;44154;45.506;-122.806;2023-02-07T13:33:43;14.15;;;12.95;;
50853;SDS011;44154;45.506;-122.806;2023-02-07T13:39:01;11.63;;;10.63;;
50853;SDS011;44154;45.506;-122.806;2023-02-07T13:47:19;10.52;;;9.70;;
50853;SDS011;44154;45.506;-122.806;2023-02-07T13:50:09;11.63;;;10.63;;
50853;SDS011;44154;45.506;-122.806;2023-02-07T13:55:34;12.05;;;11.05;;
50853;SDS011;44154;45.506;-122.806;2023-02-07T13:58:03;12.52;;;11.43;;
50853;SDS011;44154;45.506;-122.806;2023-02-07T14:01:07;12.63;;;11.52;;
50853;SDS011;44154;45.506;-122.806;2023-02-07T14:03:39;12.95;;;11.85;;
50853;SDS011;44154;45.506;-122.806;2023-02-07T14:06:25;10.13;;;9.23;;
50853;SDS011;44154;45.506;-122.806;2023-02-07T14:14:30;10.40;;;9.60;;
50853;SDS011;44154;45.506;-122.806;2023-02-07T14:17:00;10.77;;;9.88;;
50853;SDS011;44154;45.506;-122.806;2023-02-07T14:24:49;11.57;;;10.63;;
50853;SDS011;44154;45.506;-122.806;2023-02-07T14:38:39;10.07;;;9.27;;
50853;SDS011;44154;45.506;-122.806;2023-02-07T14:41:08;10.70;;;9.82;;
50853;SDS011;44154;45.506;-122.806;2023-02-07T14:43:53;11.25;;;10.32;;
50853;SDS011;44154;45.506;-122.806;2023-02-07T14:46:28;11.60;;;10.52;;
50853;SDS011;44154;45.506;-122.806;2023-02-07T14:49:04;11.32;;;10.38;;
50853;SDS011;44154;45.506;-122.806;2023-02-07T14:51:47;8.23;;;7.53;;
50853;SDS011;44154;45.506;-122.806;2023-02-07T15:02:38;6.70;;;6.10;;
50853;SDS011;44154;45.506;-122.806;2023-02-07T15:07:55;5.18;;;4.68;;
50853;SDS011;44154;45.506;-122.806;2023-02-07T15:10:29;4.20;;;3.80;;
50853;SDS011;44154;45.506;-122.806;2023-02-07T15:12:58;5.97;;;4.00;;
50853;SDS011;44154;45.506;-122.806;2023-02-07T15:15:29;3.70;;;3.40;;
50853;SDS011;44154;45.506;-122.806;2023-02-07T15:18:16;3.47;;;3.17;;
50853;SDS011;44154;45.506;-122.806;2023-02-07T15:20:49;3.70;;;3.33;;
50853;SDS011;44154;45.506;-122.806;2023-02-07T15:23:20;5.05;;;4.10;;
50853;SDS011;44154;45.506;-122.806;2023-02-07T15:25:47;3.97;;;3.58;;
50853;SDS011;44154;45.506;-122.806;2023-02-07T15:30:57;4.35;;;3.72;;
50853;SDS011;44154;45.506;-122.806;2023-02-07T15:33:27;4.97;;;4.25;;
50853;SDS011;44154;45.506;-122.806;2023-02-07T15:36:47;5.28;;;4.78;;
50853;SDS011;44154;45.506;-122.806;2023-02-07T15:38:55;5.15;;;4.65;;
50853;SDS011;44154;45.506;-122.806;2023-02-07T15:41:22;4.22;;;3.20;;
50853;SDS011;44154;45.506;-122.806;2023-02-07T15:49:25;5.90;;;3.60;;
50853;SDS011;44154;45.506;-122.806;2023-02-07T15:54:53;6.32;;;4.05;;
50853;SDS011;44154;45.506;-122.806;2023-02-07T15:57:22;10.02;;;5.10;;
50853;SDS011;44154;45.506;-122.806;2023-02-07T15:59:53;8.05;;;6.00;;
50853;SDS011;44154;45.506;-122.806;2023-02-07T16:02:26;6.45;;;5.40;;
50853;SDS011;44154;45.506;-122.806;2023-02-07T16:04:58;7.93;;;5.97;;
50853;SDS011;44154;45.506;-122.806;2023-02-07T16:07:32;8.15;;;5.47;;
50853;SDS011;44154;45.506;-122.806;2023-02-07T16:10:12;8.20;;;5.40;;
50853;SDS011;44154;45.506;-122.806;2023-02-07T16:13:08;6.28;;;5.68;;
50853;SDS011;44154;45.506;-122.806;2023-02-07T16:15:36;6.85;;;5.65;;
50853;SDS011;44154;45.506;-122.806;2023-02-07T16:18:35;6.47;;;5.88;;
50853;SDS011;44154;45.506;-122.806;2023-02-07T16:21:03;5.55;;;5.05;;
50853;SDS011;44154;45.506;-122.806;2023-02-07T16:23:31;5.63;;;4.75;;
50853;SDS011;44154;45.506;-122.806;2023-02-07T16:25:59;6.07;;;5.47;;
50853;SDS011;44154;45.506;-122.806;2023-02-07T16:28:28;6.70;;;5.22;;
50853;SDS011;44154;45.506;-122.806;2023-02-07T16:30:55;6.15;;;5.65;;
50853;SDS011;44154;45.506;-122.806;2023-02-07T16:33:22;6.70;;;6.10;;
50853;SDS011;44154;45.506;-122.806;2023-02-07T16:35:49;5.57;;;5.07;;
50853;SDS011;44154;45.506;-122.806;2023-02-07T16:38:15;6.40;;;5.80;;
50853;SDS011;44154;45.506;-122.806;2023-02-07T16:40:41;6.40;;;5.80;;
50853;SDS011;44154;45.506;-122.806;2023-02-07T16:43:07;6.25;;;5.65;;
50853;SDS011;44154;45.506;-122.806;2023-02-07T16:45:41;6.18;;;5.57;;
50853;SDS011;44154;45.506;-122.806;2023-02-07T16:48:09;7.32;;;5.95;;
50853;SDS011;44154;45.506;-122.806;2023-02-07T16:50:39;9.50;;;8.60;;
50853;SDS011;44154;45.506;-122.806;2023-02-07T16:53:05;8.50;;;7.70;;
50853;SDS011;44154;45.506;-122.806;2023-02-07T16:55:31;6.95;;;6.22;;
50853;SDS011;44154;45.506;-122.806;2023-02-07T16:57:59;6.70;;;6.10;;
50853;SDS011;44154;45.506;-122.806;2023-02-07T17:00:29;7.63;;;6.93;;
50853;SDS011;44154;45.506;-122.806;2023-02-07T17:02:55;6.90;;;6.18;;
50853;SDS011;44154;45.506;-122.806;2023-02-07T17:05:22;7.57;;;6.80;;
50853;SDS011;44154;45.506;-122.806;2023-02-07T17:07:49;7.30;;;6.68;;
50853;SDS011;44154;45.506;-122.806;2023-02-07T17:10:20;7.03;;;6.43;;
50853;SDS011;44154;45.506;-122.806;2023-02-07T17:12:53;6.82;;;6.22;;
50853;SDS011;44154;45.506;-122.806;2023-02-07T17:15:20;7.35;;;6.75;;
50853;SDS011;44154;45.506;-122.806;2023-02-07T17:17:46;8.15;;;7.45;;